createdAt,value
2018-09-25T00:01:22.859Z,6.50
2018-09-25T00:04:02.915Z,6.50
2018-09-25T00:06:42.988Z,6.40
2018-09-25T00:09:22.946Z,6.30
2018-09-25T00:12:02.988Z,6.50
2018-09-25T00:14:43.099Z,6.30
2018-09-25T00:17:23.123Z,6.40
2018-09-25T00:20:03.084Z,6.30
2018-09-25T00:22:43.203Z,6.10
2018-09-25T00:25:23.296Z,6.00
2018-09-25T00:28:03.267Z,6.00
2018-09-25T00:30:43.181Z,6.10
2018-09-25T00:33:23.199Z,6.00
2018-09-25T00:36:03.155Z,5.90
2018-09-25T00:38:43.118Z,5.80
2018-09-25T00:41:23.118Z,5.80
2018-09-25T00:44:02.977Z,5.70
2018-09-25T00:46:42.991Z,5.70
2018-09-25T00:49:22.950Z,5.70
2018-09-25T00:52:03.028Z,5.90
2018-09-25T00:54:42.938Z,6.00
2018-09-25T00:57:22.987Z,6.00
2018-09-25T01:00:02.922Z,6.00
2018-09-25T01:02:42.991Z,6.00
2018-09-25T01:05:23.050Z,6.00
2018-09-25T01:08:02.953Z,6.10
2018-09-25T01:10:42.798Z,6.10
2018-09-25T01:13:22.851Z,6.10
2018-09-25T01:16:02.879Z,6.10
2018-09-25T01:18:42.999Z,6.10
2018-09-25T01:21:22.958Z,6.20
2018-09-25T01:24:03.036Z,6.20
2018-09-25T01:26:43.093Z,6.60
2018-09-25T01:29:23.087Z,6.50
2018-09-25T01:32:03.195Z,6.60
2018-09-25T01:34:43.188Z,6.60
2018-09-25T01:37:23.276Z,6.90
2018-09-25T01:40:03.307Z,7.00
2018-09-25T01:42:43.470Z,6.90
2018-09-25T01:45:23.170Z,7.00
2018-09-25T01:48:03.175Z,7.00
2018-09-25T01:50:43.118Z,6.90
2018-09-25T01:53:23.162Z,6.70
2018-09-25T01:56:03.131Z,6.60
2018-09-25T01:58:43.250Z,6.70
2018-09-25T02:01:23.293Z,6.80
2018-09-25T02:04:03.267Z,7.00
2018-09-25T02:06:43.131Z,6.90
2018-09-25T02:09:23.291Z,6.90
2018-09-25T02:12:03.403Z,6.80
2018-09-25T02:14:43.567Z,6.80
2018-09-25T02:17:23.585Z,6.80
2018-09-25T02:20:03.476Z,6.70
2018-09-25T02:22:43.462Z,6.70
2018-09-25T02:25:23.513Z,6.70
2018-09-25T02:28:03.498Z,6.80
2018-09-25T02:30:43.514Z,6.80
2018-09-25T02:33:23.683Z,6.60
2018-09-25T02:36:03.518Z,6.50
2018-09-25T02:38:43.655Z,6.60
2018-09-25T02:41:23.668Z,6.50
2018-09-25T02:44:03.756Z,6.50
2018-09-25T02:46:43.689Z,6.40
2018-09-25T02:49:23.608Z,6.40
2018-09-25T02:52:03.667Z,6.30
2018-09-25T02:54:43.903Z,6.20
2018-09-25T02:57:23.814Z,6.10
2018-09-25T03:00:03.786Z,6.00
2018-09-25T03:02:43.714Z,6.00
2018-09-25T03:05:23.486Z,6.00
2018-09-25T03:08:03.555Z,5.90
2018-09-25T03:10:43.555Z,5.90
2018-09-25T03:13:23.702Z,5.90
2018-09-25T03:16:03.577Z,6.20
2018-09-25T03:18:43.419Z,6.10
2018-09-25T03:21:23.523Z,5.90
2018-09-25T03:24:03.549Z,5.90
2018-09-25T03:26:43.363Z,6.00
2018-09-25T03:29:23.211Z,6.10
2018-09-25T03:32:03.420Z,6.00
2018-09-25T03:34:43.531Z,6.00
2018-09-25T03:37:23.575Z,5.90
2018-09-25T03:40:03.541Z,5.70
2018-09-25T03:42:43.650Z,5.70
2018-09-25T03:45:23.651Z,6.00
2018-09-25T03:48:03.606Z,5.90
2018-09-25T03:50:43.623Z,5.90
2018-09-25T03:53:17.916Z,6.30
2018-09-25T03:55:52.311Z,6.20
2018-09-25T03:58:26.443Z,6.10
2018-09-25T04:01:00.763Z,6.40
2018-09-25T04:03:34.871Z,6.20
2018-09-25T04:06:09.660Z,6.10
2018-09-25T04:08:43.983Z,5.90
2018-09-25T04:11:18.356Z,5.80
2018-09-25T04:13:52.645Z,5.90
2018-09-25T04:16:26.934Z,5.80
2018-09-25T04:19:01.329Z,5.90
2018-09-25T04:21:35.594Z,5.70
2018-09-25T04:24:09.983Z,5.60
2018-09-25T04:26:44.279Z,5.30
2018-09-25T04:29:18.683Z,5.20
2018-09-25T04:31:52.975Z,5.10
2018-09-25T04:34:27.159Z,5.00
2018-09-25T04:37:01.613Z,5.10
2018-09-25T04:39:36.112Z,5.30
2018-09-25T04:42:10.499Z,5.20
2018-09-25T04:44:44.880Z,5.20
2018-09-25T04:47:19.151Z,5.30
2018-09-25T04:49:53.526Z,5.40
2018-09-25T04:52:27.968Z,5.40
2018-09-25T04:55:02.302Z,5.50
2018-09-25T04:57:36.687Z,5.50
2018-09-25T05:00:11.195Z,5.40
2018-09-25T05:02:45.499Z,5.40
2018-09-25T05:05:19.751Z,5.50
2018-09-25T05:07:54.042Z,5.50
2018-09-25T05:10:28.417Z,5.50
2018-09-25T05:13:02.736Z,5.50
2018-09-25T05:15:37.066Z,5.40
2018-09-25T05:18:11.532Z,5.30
2018-09-25T05:20:45.814Z,5.30
2018-09-25T05:23:20.244Z,5.30
2018-09-25T05:25:54.527Z,5.40
2018-09-25T05:28:28.798Z,5.30
2018-09-25T05:31:03.236Z,5.40
2018-09-25T05:33:37.402Z,5.30
2018-09-25T05:36:11.847Z,5.30
2018-09-25T05:38:46.123Z,5.40
2018-09-25T05:41:20.411Z,5.40
2018-09-25T05:43:54.649Z,5.40
2018-09-25T05:46:28.836Z,5.50
2018-09-25T05:49:03.304Z,5.50
2018-09-25T05:51:37.567Z,5.70
2018-09-25T05:54:11.934Z,6.30
2018-09-25T05:56:46.295Z,6.70
2018-09-25T05:59:20.628Z,6.70
2018-09-25T06:01:54.875Z,6.90
2018-09-25T06:04:29.151Z,6.80
2018-09-25T06:07:03.408Z,6.80
2018-09-25T06:09:37.691Z,6.70
2018-09-25T06:12:11.887Z,6.90
2018-09-25T06:14:46.263Z,7.30
2018-09-25T06:17:20.497Z,7.10
2018-09-25T06:19:54.895Z,7.10
2018-09-25T06:22:29.176Z,7.10
2018-09-25T06:25:03.487Z,7.20
2018-09-25T06:27:37.982Z,7.10
2018-09-25T06:30:12.417Z,7.20
2018-09-25T06:32:46.928Z,7.30
2018-09-25T06:35:21.190Z,7.30
2018-09-25T06:37:55.658Z,7.50
2018-09-25T06:40:30.168Z,7.70
2018-09-25T06:43:04.440Z,7.80
2018-09-25T06:45:38.732Z,7.70
2018-09-25T06:48:12.994Z,7.70
2018-09-25T06:50:47.439Z,7.90
2018-09-25T06:53:21.845Z,8.00
2018-09-25T06:55:56.300Z,8.10
2018-09-25T06:58:30.722Z,8.20
2018-09-25T07:01:05.095Z,8.30
2018-09-25T07:03:39.310Z,8.20
2018-09-25T07:06:13.598Z,8.20
2018-09-25T07:08:47.976Z,8.20
2018-09-25T07:11:22.649Z,8.30
2018-09-25T07:13:56.974Z,8.40
2018-09-25T07:16:31.234Z,8.30
2018-09-25T07:19:05.432Z,8.30
2018-09-25T07:21:39.870Z,8.20
2018-09-25T07:24:14.114Z,8.30
2018-09-25T07:26:48.617Z,8.20
2018-09-25T07:29:23.054Z,8.20
2018-09-25T07:31:57.342Z,8.30
2018-09-25T07:34:31.749Z,8.50
2018-09-25T07:37:06.168Z,8.60
2018-09-25T07:39:40.399Z,8.60
2018-09-25T07:42:14.715Z,8.70
2018-09-25T07:44:49.022Z,8.80
2018-09-25T07:47:23.419Z,8.90
2018-09-25T07:49:57.694Z,9.10
2018-09-25T07:52:32.007Z,9.00
2018-09-25T07:55:06.442Z,9.10
2018-09-25T07:57:40.884Z,9.30
2018-09-25T08:00:15.330Z,9.30
2018-09-25T08:02:49.558Z,9.40
2018-09-25T08:05:23.959Z,9.40
2018-09-25T08:07:58.436Z,9.70
2018-09-25T08:10:32.726Z,10.10
2018-09-25T08:13:07.047Z,10.40
2018-09-25T08:15:41.276Z,10.60
2018-09-25T08:18:15.564Z,10.80
2018-09-25T08:20:50.056Z,12.60
2018-09-25T08:23:24.357Z,14.80
2018-09-25T08:25:58.848Z,16.30
2018-09-25T08:28:33.360Z,17.60
2018-09-25T08:31:07.929Z,17.90
2018-09-25T08:33:42.433Z,19.50
2018-09-25T08:36:16.626Z,20.50
2018-09-25T08:38:51.178Z,20.30
2018-09-25T08:41:25.338Z,20.50
2018-09-25T08:43:59.648Z,21.00
2018-09-25T08:46:33.950Z,21.10
2018-09-25T08:49:08.421Z,20.10
2018-09-25T08:51:42.795Z,20.70
2018-09-25T08:54:17.171Z,20.60
2018-09-25T08:56:51.474Z,21.40
2018-09-25T08:59:32.707Z,22.80
2018-09-25T09:02:06.988Z,22.80
2018-09-25T09:04:41.526Z,22.60
2018-09-25T09:07:15.766Z,22.80
2018-09-25T09:09:50.166Z,22.70
2018-09-25T09:12:24.402Z,23.50
2018-09-25T09:14:58.733Z,23.40
2018-09-25T09:17:33.081Z,24.10
2018-09-25T09:20:07.480Z,23.80
2018-09-25T09:22:41.891Z,22.70
2018-09-25T09:25:16.260Z,21.80
2018-09-25T09:27:50.549Z,22.60
2018-09-25T09:30:24.820Z,23.70
2018-09-25T09:32:59.255Z,23.70
2018-09-25T09:35:33.651Z,24.70
2018-09-25T09:38:07.956Z,24.30
2018-09-25T09:40:42.295Z,24.40
2018-09-25T09:43:16.457Z,24.80
2018-09-25T09:45:50.776Z,25.50
2018-09-25T09:48:25.151Z,24.80
2018-09-25T09:50:59.583Z,24.90
2018-09-25T09:53:34.060Z,23.10
2018-09-25T09:56:08.351Z,23.50
2018-09-25T09:58:42.686Z,22.90
2018-09-25T10:01:16.964Z,24.50
2018-09-25T10:03:51.283Z,23.20
2018-09-25T10:06:25.646Z,21.30
2018-09-25T10:08:59.963Z,21.10
2018-09-25T10:11:34.157Z,22.70
2018-09-25T10:14:08.598Z,22.50
2018-09-25T10:16:43.027Z,22.20
2018-09-25T10:19:17.363Z,23.10
2018-09-25T10:21:51.615Z,23.30
2018-09-25T10:24:26.005Z,24.10
2018-09-25T10:27:00.494Z,24.20
2018-09-25T10:29:34.680Z,24.20
2018-09-25T10:32:08.966Z,24.50
2018-09-25T10:34:43.348Z,23.50
2018-09-25T10:37:17.848Z,23.70
2018-09-25T10:39:52.116Z,24.10
2018-09-25T10:42:26.318Z,23.10
2018-09-25T10:45:00.595Z,23.10
2018-09-25T10:47:34.996Z,21.70
2018-09-25T10:50:09.352Z,22.00
2018-09-25T10:52:43.702Z,22.40
2018-09-25T10:55:18.162Z,22.70
2018-09-25T10:57:52.586Z,23.90
2018-09-25T11:00:26.943Z,24.90
2018-09-25T11:03:01.447Z,25.40
2018-09-25T11:05:35.570Z,25.60
2018-09-25T11:08:10.064Z,25.10
2018-09-25T11:10:44.335Z,24.30
2018-09-25T11:13:18.783Z,24.30
2018-09-25T11:15:53.087Z,24.20
2018-09-25T11:18:27.567Z,24.30
2018-09-25T11:21:02.094Z,24.50
2018-09-25T11:23:36.470Z,25.00
2018-09-25T11:26:10.924Z,24.90
2018-09-25T11:28:45.138Z,24.20
2018-09-25T11:31:19.546Z,24.70
2018-09-25T11:33:53.815Z,23.90
2018-09-25T11:36:28.273Z,23.70
2018-09-25T11:39:02.402Z,24.10
2018-09-25T11:41:36.818Z,23.60
2018-09-25T11:44:11.582Z,21.60
2018-09-25T11:46:46.023Z,21.80
2018-09-25T11:49:20.640Z,23.10
2018-09-25T11:51:55.121Z,23.20
2018-09-25T11:54:29.431Z,24.00
2018-09-25T11:57:03.663Z,24.40
2018-09-25T11:59:38.040Z,24.70
2018-09-25T12:02:12.484Z,24.70
2018-09-25T12:04:46.767Z,22.30
2018-09-25T12:07:21.126Z,23.40
2018-09-25T12:09:55.425Z,23.40
2018-09-25T12:12:29.902Z,22.90
2018-09-25T12:15:04.311Z,23.50
2018-09-25T12:17:38.534Z,23.50
2018-09-25T12:20:12.750Z,23.00
2018-09-25T12:22:47.100Z,22.70
2018-09-25T12:25:21.386Z,23.20
2018-09-25T12:27:55.656Z,23.00
2018-09-25T12:30:29.983Z,22.80
2018-09-25T12:33:04.361Z,22.40
2018-09-25T12:35:38.632Z,22.80
2018-09-25T12:38:12.824Z,23.40
2018-09-25T12:40:47.152Z,22.80
2018-09-25T12:43:21.403Z,22.10
2018-09-25T12:45:55.846Z,22.90
2018-09-25T12:48:30.246Z,22.70
2018-09-25T12:51:04.501Z,23.40
2018-09-25T12:53:38.899Z,22.90
2018-09-25T12:56:13.268Z,23.20
2018-09-25T12:58:47.858Z,21.50
2018-09-25T13:01:22.218Z,20.90
2018-09-25T13:03:56.753Z,21.20
2018-09-25T13:06:31.050Z,21.10
2018-09-25T13:09:05.515Z,20.80
2018-09-25T13:11:39.893Z,19.50
2018-09-25T13:14:14.425Z,19.50
2018-09-25T13:16:48.934Z,19.30
2018-09-25T13:19:23.211Z,19.10
2018-09-25T13:21:57.653Z,20.00
2018-09-25T13:24:31.998Z,20.20
2018-09-25T13:27:06.511Z,19.70
2018-09-25T13:29:41.044Z,19.60
2018-09-25T13:32:15.328Z,19.50
2018-09-25T13:34:49.750Z,19.20
2018-09-25T13:37:24.247Z,19.20
2018-09-25T13:39:58.656Z,19.10
2018-09-25T13:42:32.980Z,19.20
2018-09-25T13:45:07.468Z,18.80
2018-09-25T13:47:41.902Z,18.80
2018-09-25T13:50:16.302Z,18.80
2018-09-25T13:52:50.661Z,18.50
2018-09-25T13:55:25.119Z,18.40
2018-09-25T13:57:59.678Z,18.60
2018-09-25T14:00:33.806Z,18.60
2018-09-25T14:03:08.390Z,18.30
2018-09-25T14:05:42.627Z,18.30
2018-09-25T14:08:17.030Z,17.90
2018-09-25T14:10:51.250Z,17.90
2018-09-25T14:13:25.506Z,18.10
2018-09-25T14:15:59.899Z,18.30
2018-09-25T14:18:34.163Z,18.30
2018-09-25T14:21:08.578Z,18.20
2018-09-25T14:23:43.726Z,18.20
2018-09-25T14:26:17.887Z,18.20
2018-09-25T14:28:52.171Z,18.20
2018-09-25T14:31:26.630Z,18.50
2018-09-25T14:34:00.897Z,18.30
2018-09-25T14:36:35.288Z,18.40
2018-09-25T14:39:10.607Z,18.50
2018-09-25T14:41:45.033Z,18.40
2018-09-25T14:44:19.346Z,18.30
2018-09-25T14:46:53.632Z,18.20
2018-09-25T14:49:28.082Z,18.10
2018-09-25T14:52:02.315Z,18.20
2018-09-25T14:54:36.625Z,18.10
2018-09-25T14:57:10.846Z,18.00
2018-09-25T14:59:45.159Z,18.10
2018-09-25T15:02:19.691Z,18.10
2018-09-25T15:04:54.087Z,17.90
2018-09-25T15:07:28.559Z,17.90
2018-09-25T15:10:02.901Z,17.80
2018-09-25T15:12:37.336Z,17.80
2018-09-25T15:15:11.855Z,17.80
2018-09-25T15:17:46.078Z,17.60
2018-09-25T15:20:20.570Z,17.60
2018-09-25T15:22:55.031Z,17.40
2018-09-25T15:25:29.603Z,17.50
2018-09-25T15:28:03.761Z,17.40
2018-09-25T15:30:38.118Z,17.30
2018-09-25T15:33:12.630Z,17.40
2018-09-25T15:35:46.912Z,17.40
2018-09-25T15:38:21.494Z,17.30
2018-09-25T15:40:56.115Z,17.20
2018-09-25T15:43:30.456Z,17.20
2018-09-25T15:46:04.823Z,17.20
2018-09-25T15:48:39.155Z,17.20
2018-09-25T15:51:13.510Z,17.20
2018-09-25T15:53:47.770Z,17.10
2018-09-25T15:56:22.118Z,17.00
2018-09-25T15:58:56.609Z,16.90
2018-09-25T16:01:31.079Z,16.80
2018-09-25T16:04:05.467Z,16.80
2018-09-25T16:06:39.772Z,16.80
2018-09-25T16:09:14.783Z,16.70
2018-09-25T16:11:49.003Z,16.70
2018-09-25T16:14:23.427Z,16.50
2018-09-25T16:16:57.655Z,16.50
2018-09-25T16:19:32.117Z,16.60
2018-09-25T16:22:06.487Z,16.50
2018-09-25T16:24:40.889Z,16.50
2018-09-25T16:27:15.198Z,16.30
2018-09-25T16:29:49.561Z,16.20
2018-09-25T16:32:23.891Z,16.20
2018-09-25T16:34:58.086Z,16.10
2018-09-25T16:37:32.596Z,16.10
2018-09-25T16:40:07.045Z,16.10
2018-09-25T16:42:41.622Z,16.00
2018-09-25T16:45:15.954Z,16.00
2018-09-25T16:47:50.296Z,15.90
2018-09-25T16:50:24.715Z,15.70
2018-09-25T16:52:59.212Z,15.70
2018-09-25T16:55:33.469Z,15.60
2018-09-25T16:58:07.795Z,15.50
2018-09-25T17:00:42.973Z,15.40
2018-09-25T17:03:17.335Z,15.30
2018-09-25T17:05:51.833Z,15.30
2018-09-25T17:08:26.218Z,15.10
2018-09-25T17:11:00.674Z,15.00
2018-09-25T17:13:34.960Z,15.00
2018-09-25T17:16:09.267Z,14.80
2018-09-25T17:18:43.829Z,14.60
2018-09-25T17:21:18.127Z,14.40
2018-09-25T17:23:52.483Z,14.20
2018-09-25T17:26:26.933Z,14.20
2018-09-25T17:29:01.355Z,14.20
2018-09-25T17:31:35.720Z,14.10
2018-09-25T17:34:10.288Z,14.10
2018-09-25T17:36:45.358Z,14.00
2018-09-25T17:39:19.620Z,13.90
2018-09-25T17:41:53.952Z,13.70
2018-09-25T17:44:28.422Z,13.60
2018-09-25T17:47:02.882Z,13.60
2018-09-25T17:49:37.085Z,13.50
2018-09-25T17:52:11.536Z,13.60
2018-09-25T17:54:45.984Z,13.40
2018-09-25T17:57:20.398Z,13.30
2018-09-25T17:59:54.599Z,13.20
2018-09-25T18:02:29.048Z,13.10
2018-09-25T18:05:03.683Z,13.10
2018-09-25T18:07:37.906Z,12.90
2018-09-25T18:10:12.363Z,12.70
2018-09-25T18:12:46.798Z,12.70
2018-09-25T18:15:21.247Z,12.60
2018-09-25T18:17:55.781Z,12.40
2018-09-25T18:20:30.099Z,12.30
2018-09-25T18:23:04.534Z,12.20
2018-09-25T18:25:38.855Z,12.00
2018-09-25T18:28:13.168Z,12.10
2018-09-25T18:30:47.646Z,12.00
2018-09-25T18:33:21.868Z,12.10
2018-09-25T18:35:56.338Z,12.00
2018-09-25T18:38:30.712Z,11.90
2018-09-25T18:41:05.116Z,11.80
2018-09-25T18:43:39.478Z,11.70
2018-09-25T18:46:13.946Z,11.50
2018-09-25T18:48:48.740Z,11.40
2018-09-25T18:51:23.259Z,11.30
2018-09-25T18:53:57.552Z,11.30
2018-09-25T18:56:31.978Z,11.70
2018-09-25T18:59:06.174Z,11.60
2018-09-25T19:01:40.473Z,11.50
2018-09-25T19:04:14.634Z,11.50
2018-09-25T19:06:50.167Z,11.50
2018-09-25T19:09:24.552Z,11.50
2018-09-25T19:11:58.969Z,11.40
2018-09-25T19:14:33.394Z,11.20
2018-09-25T19:17:07.900Z,11.10
2018-09-25T19:19:42.356Z,11.00
2018-09-25T19:22:16.752Z,11.00
2018-09-25T19:24:51.071Z,10.70
2018-09-25T19:27:25.419Z,10.80
2018-09-25T19:29:59.672Z,11.00
2018-09-25T19:32:34.194Z,10.90
2018-09-25T19:35:08.632Z,10.90
2018-09-25T19:37:42.883Z,10.70
2018-09-25T19:40:17.122Z,10.70
2018-09-25T19:42:51.587Z,10.60
2018-09-25T19:45:25.821Z,10.50
2018-09-25T19:48:00.215Z,10.40
2018-09-25T19:50:34.366Z,10.30
2018-09-25T19:53:08.786Z,10.70
2018-09-25T19:55:43.060Z,10.70
2018-09-25T19:58:17.333Z,10.60
2018-09-25T20:00:51.710Z,10.60
2018-09-25T20:03:26.143Z,10.50
2018-09-25T20:06:01.151Z,10.60
2018-09-25T20:08:35.517Z,10.60
2018-09-25T20:11:09.772Z,10.60
2018-09-25T20:13:44.246Z,10.50
2018-09-25T20:16:18.479Z,10.20
2018-09-25T20:18:52.868Z,10.40
2018-09-25T20:21:27.563Z,10.60
2018-09-25T20:24:02.321Z,10.70
2018-09-25T20:26:36.594Z,10.60
2018-09-25T20:29:11.119Z,10.50
2018-09-25T20:31:45.488Z,10.50
2018-09-25T20:34:19.762Z,10.40
2018-09-25T20:36:54.237Z,10.20
2018-09-25T20:39:28.583Z,10.10
2018-09-25T20:42:03.051Z,10.00
2018-09-25T20:44:37.355Z,10.20
2018-09-25T20:47:11.822Z,10.10
2018-09-25T20:49:46.235Z,10.10
2018-09-25T20:52:20.787Z,9.90
2018-09-25T20:54:55.015Z,9.90
2018-09-25T20:57:29.406Z,9.80
2018-09-25T21:00:03.993Z,9.70
2018-09-25T21:02:38.319Z,9.90
2018-09-25T21:05:12.761Z,10.10
2018-09-25T21:07:47.170Z,10.10
2018-09-25T21:10:27.355Z,10.30
2018-09-25T21:13:07.587Z,10.30
2018-09-25T21:15:47.504Z,10.30
2018-09-25T21:18:27.600Z,10.00
2018-09-25T21:21:07.575Z,9.90
2018-09-25T21:23:47.577Z,9.80
2018-09-25T21:26:27.423Z,9.90
2018-09-25T21:29:07.506Z,10.00
2018-09-25T21:31:47.619Z,10.00
2018-09-25T21:34:27.763Z,10.00
2018-09-25T21:37:07.666Z,10.10
2018-09-25T21:39:47.835Z,10.00
2018-09-25T21:42:27.717Z,10.00
2018-09-25T21:45:07.873Z,9.80
2018-09-25T21:47:47.903Z,9.70
2018-09-25T21:50:27.927Z,9.70
2018-09-25T21:53:08.043Z,9.50
2018-09-25T21:55:48.050Z,9.50
2018-09-25T21:58:28.190Z,9.30
2018-09-25T22:01:08.347Z,9.20
2018-09-25T22:03:48.451Z,9.20
2018-09-25T22:06:28.446Z,9.20
2018-09-25T22:09:08.930Z,9.20
2018-09-25T22:11:48.880Z,9.20
2018-09-25T22:14:28.907Z,9.20
2018-09-25T22:17:10.019Z,9.00
2018-09-25T22:19:50.016Z,8.90
2018-09-25T22:22:30.096Z,9.00
2018-09-25T22:25:10.879Z,9.00
2018-09-25T22:27:50.878Z,9.00
2018-09-25T22:30:31.004Z,8.80
2018-09-25T22:33:11.211Z,8.70
2018-09-25T22:35:51.234Z,8.60
2018-09-25T22:38:31.237Z,8.90
2018-09-25T22:41:11.519Z,9.10
2018-09-25T22:43:51.550Z,8.70
2018-09-25T22:46:31.567Z,8.60
2018-09-25T22:49:12.822Z,8.60
2018-09-25T22:51:52.959Z,8.70
2018-09-25T22:54:32.923Z,8.50
2018-09-25T22:57:12.773Z,8.30
2018-09-25T22:59:52.746Z,8.50
2018-09-25T23:02:32.863Z,8.60
2018-09-25T23:05:13.227Z,8.60
2018-09-25T23:07:53.187Z,8.60
2018-09-25T23:10:33.339Z,8.50
2018-09-25T23:13:13.838Z,8.70
2018-09-25T23:15:53.893Z,8.70
2018-09-25T23:18:34.004Z,8.80
2018-09-25T23:21:15.171Z,8.70
2018-09-25T23:23:55.413Z,8.60
2018-09-25T23:26:35.507Z,8.60
2018-09-25T23:29:15.491Z,8.50
2018-09-25T23:31:55.622Z,8.40
2018-09-25T23:34:35.743Z,8.30
2018-09-25T23:37:15.863Z,8.20
2018-09-25T23:39:54.762Z,8.10
2018-09-25T23:42:50.621Z,8.10
2018-09-25T23:45:29.582Z,8.10
2018-09-25T23:48:08.320Z,8.20
2018-09-25T23:50:49.119Z,8.20
2018-09-25T23:53:28.435Z,8.30
2018-09-25T23:56:07.275Z,8.30
2018-09-25T23:58:46.166Z,8.20
